Time;durP1;ratioP1;P1;durP2;ratioP2;P2;SDS_P1;SDS_P2;PMS_P1;PMS_P2;Temp;Humidity;BMP_temperature;BMP_pressure;BME280_temperature;BME280_humidity;BME280_pressure;Samples;Min_cycle;Max_cycle;Signal;HPM_P1;HPM_P2
2021/08/20 00:00:12;;;;;;;5.60;3.27;;;;;;;17.26;66.99;101271.38;5981013;29;20239;-55
2021/08/20 00:03:37;;;;;;;5.63;3.27;;;;;;;17.54;66.09;101271.41;5974196;29;20240;-54
2021/08/20 00:06:58;;;;;;;4.00;2.80;;;;;;;17.71;65.65;101273.50;5977261;29;20263;-53
2021/08/20 00:10:19;;;;;;;8.77;3.40;;;;;;;17.79;65.14;101271.50;5980370;29;20247;-54
2021/08/20 00:13:41;;;;;;;5.50;3.63;;;;;;;17.67;65.29;101270.09;5977811;29;20236;-54
2021/08/20 00:17:02;;;;;;;4.13;3.73;;;;;;;17.28;66.62;101277.47;5977009;29;20529;-54
2021/08/20 00:20:23;;;;;;;5.07;4.03;;;;;;;17.39;66.25;101278.00;5975867;29;20267;-50
2021/08/20 00:23:44;;;;;;;8.67;3.83;;;;;;;17.44;66.20;101269.97;5977905;29;20252;-53
2021/08/20 00:27:06;;;;;;;4.93;3.70;;;;;;;17.44;66.22;101264.69;5976089;29;20323;-51
2021/08/20 00:30:28;;;;;;;4.57;2.97;;;;;;;17.28;66.90;101272.22;5978709;29;20243;-54
2021/08/20 00:33:49;;;;;;;6.50;4.10;;;;;;;17.10;67.83;101265.72;5972603;29;20352;-50
2021/08/20 00:37:11;;;;;;;5.47;4.57;;;;;;;17.33;67.01;101272.91;5979533;29;20232;-54
2021/08/20 00:40:33;;;;;;;5.20;3.77;;;;;;;17.14;67.15;101269.97;5975740;29;20268;-53
2021/08/20 00:43:54;;;;;;;7.27;4.47;;;;;;;17.18;66.96;101273.41;5984351;29;20239;-55
2021/08/20 00:47:17;;;;;;;7.27;4.30;;;;;;;17.13;66.94;101274.34;5978541;29;20787;-53
2021/08/20 00:50:39;;;;;;;7.93;4.77;;;;;;;16.85;67.92;101276.09;5978007;29;20255;-49
2021/08/20 00:54:00;;;;;;;6.00;4.97;;;;;;;16.78;68.48;101266.59;5983532;29;20510;-52
2021/08/20 00:57:22;;;;;;;6.57;5.07;;;;;;;16.69;68.68;101263.31;5978590;29;20239;-50
2021/08/20 01:00:43;;;;;;;8.03;4.90;;;;;;;16.91;67.85;101268.88;5981586;29;20251;-55
2021/08/20 01:04:07;;;;;;;7.27;4.87;;;;;;;17.24;66.82;101266.16;5982182;29;20682;-53
2021/08/20 01:07:28;;;;;;;5.87;4.30;;;;;;;17.35;66.06;101267.59;5983450;29;20244;-53
2021/08/20 01:10:50;;;;;;;4.97;4.23;;;;;;;17.27;66.15;101267.84;5982386;29;20239;-54
2021/08/20 01:14:14;;;;;;;5.23;4.47;;;;;;;17.25;66.62;101267.00;5975210;29;20679;-55
2021/08/20 01:17:36;;;;;;;5.13;4.30;;;;;;;17.02;67.41;101272.94;5983736;29;20236;-52
2021/08/20 01:21:01;;;;;;;5.83;4.47;;;;;;;17.17;67.18;101264.59;5975939;29;20235;-55
2021/08/20 01:24:23;;;;;;;6.57;5.17;;;;;;;16.93;67.75;101276.72;5977435;29;20243;-55
2021/08/20 01:27:45;;;;;;;6.77;4.60;;;;;;;16.82;67.97;101270.88;5982765;29;20283;-53
2021/08/20 01:31:09;;;;;;;5.43;4.27;;;;;;;16.72;68.33;101276.38;5980001;29;20323;-50
2021/08/20 01:34:31;;;;;;;6.67;4.97;;;;;;;16.97;67.98;101269.59;5979059;29;20235;-54
2021/08/20 01:37:52;;;;;;;5.13;4.37;;;;;;;17.23;66.82;101267.06;5977078;29;20243;-54
2021/08/20 01:41:14;;;;;;;7.27;4.87;;;;;;;17.25;66.81;101262.63;5972294;29;20237;-54
2021/08/20 01:44:37;;;;;;;6.90;4.33;;;;;;;17.40;66.51;101258.66;5980672;29;20231;-52
2021/08/20 01:47:58;;;;;;;5.60;4.70;;;;;;;17.41;66.51;101249.88;5980810;29;20658;-56
2021/08/20 01:51:22;;;;;;;7.27;4.77;;;;;;;17.50;66.15;101260.09;5977738;29;20235;-50
2021/08/20 01:54:44;;;;;;;7.17;4.67;;;;;;;17.22;67.47;101253.97;5980669;29;20231;-52
2021/08/20 01:58:05;;;;;;;5.10;4.60;;;;;;;17.34;66.76;101243.06;5978381;29;20319;-52
2021/08/20 02:01:28;;;;;;;8.03;6.20;;;;;;;16.74;68.67;101244.78;5981682;29;20526;-53
2021/08/20 02:04:49;;;;;;;8.73;5.30;;;;;;;17.05;67.77;101247.41;5986265;29;20239;-52
2021/08/20 02:08:10;;;;;;;5.40;4.90;;;;;;;16.87;68.35;101240.94;5973341;29;20247;-50
2021/08/20 02:11:32;;;;;;;9.27;6.03;;;;;;;16.80;68.86;101252.47;5977853;29;20295;-54
2021/08/20 02:14:53;;;;;;;8.97;5.80;;;;;;;16.43;70.52;101252.63;5981978;29;20619;-51
2021/08/20 02:18:16;;;;;;;6.47;5.53;;;;;;;16.34;71.69;101262.50;5976874;29;20292;-53
2021/08/20 02:21:36;;;;;;;7.20;6.17;;;;;;;16.28;72.08;101254.75;5975721;29;20232;-54
2021/08/20 02:25:06;;;;;;;14.93;7.50;;;;;;;16.56;71.52;101258.44;5972993;29;20668;-48
2021/08/20 02:28:27;;;;;;;7.27;5.37;;;;;;;16.54;71.46;101261.09;5977632;29;20610;-50
2021/08/20 02:31:52;;;;;;;8.47;6.60;;;;;;;16.86;70.22;101262.00;5977689;29;20240;-53
2021/08/20 02:35:14;;;;;;;7.33;5.50;;;;;;;16.97;70.07;101259.09;5975891;29;20231;-53
2021/08/20 02:38:35;;;;;;;8.63;6.00;;;;;;;17.31;68.90;101251.03;5976160;29;20240;-51
2021/08/20 02:41:57;;;;;;;6.27;5.20;;;;;;;17.23;69.23;101255.69;5979210;29;20239;-52
2021/08/20 02:45:19;;;;;;;7.27;5.93;;;;;;;17.02;70.77;101258.03;5967620;29;20905;-51
2021/08/20 02:48:46;;;;;;;8.23;5.73;;;;;;;16.79;72.31;101260.41;5978647;29;20239;-51
2021/08/20 02:52:09;;;;;;;8.33;5.77;;;;;;;16.37;74.47;101256.28;5980537;29;20539;-50
2021/08/20 02:55:33;;;;;;;8.47;6.53;;;;;;;16.29;75.49;101253.00;5992765;29;20905;-51
2021/08/20 02:58:54;;;;;;;7.20;6.20;;;;;;;16.20;75.60;101256.72;5979071;29;20517;-53
2021/08/20 03:02:16;;;;;;;7.97;6.33;;;;;;;16.12;76.49;101250.78;5977698;29;20244;-54
2021/08/20 03:05:37;;;;;;;7.57;6.80;;;;;;;16.26;75.57;101253.91;5977977;29;21036;-50
2021/08/20 03:09:00;;;;;;;7.93;6.60;;;;;;;16.63;74.35;101254.72;5974981;29;20240;-51
2021/08/20 03:12:22;;;;;;;9.17;7.37;;;;;;;16.90;73.46;101263.63;5976155;29;20525;-50
2021/08/20 03:15:47;;;;;;;7.80;6.37;;;;;;;16.96;72.86;101259.97;5978078;29;20323;-54
2021/08/20 03:19:08;;;;;;;7.20;6.27;;;;;;;17.05;72.66;101252.69;5975176;29;20240;-52
2021/08/20 03:22:32;;;;;;;7.53;6.43;;;;;;;17.09;72.46;101253.47;5984417;29;20251;-54
2021/08/20 03:25:58;;;;;;;10.47;6.57;;;;;;;16.97;72.36;101257.31;5974184;29;20244;-51
2021/08/20 03:29:21;;;;;;;5.53;4.73;;;;;;;16.90;73.21;101253.13;5979005;29;20235;-55
2021/08/20 03:32:55;;;;;;;8.83;6.67;;;;;;;17.09;72.44;101249.03;5980238;29;20747;-53
2021/08/20 03:36:16;;;;;;;8.63;7.23;;;;;;;16.25;75.54;101254.84;5960181;29;20232;-52
2021/08/20 03:39:41;;;;;;;7.33;5.47;;;;;;;16.31;75.49;101249.41;5978061;29;20236;-53
2021/08/20 03:43:04;;;;;;;7.27;5.53;;;;;;;15.97;76.40;101252.03;5981128;29;21177;-51
2021/08/20 03:46:31;;;;;;;8.00;6.20;;;;;;;16.24;76.06;101255.72;5977321;29;20235;-53
2021/08/20 03:49:52;;;;;;;8.63;7.30;;;;;;;16.71;74.38;101247.47;5976410;29;20251;-54
2021/08/20 03:53:13;;;;;;;7.93;5.93;;;;;;;16.75;74.01;101246.50;5972955;29;20354;-50
2021/08/20 03:56:35;;;;;;;7.70;6.83;;;;;;;16.08;76.85;101250.00;5981294;29;20240;-50
2021/08/20 04:00:20;;;;;;;10.40;7.40;;;;;;;16.20;76.82;101248.81;5973272;29;20236;-50
2021/08/20 04:03:47;;;;;;;9.67;7.00;;;;;;;16.02;78.50;101251.94;5974184;29;20247;-54
2021/08/20 04:07:20;;;;;;;8.93;8.00;;;;;;;16.17;78.37;101251.56;5977543;29;20235;-55
2021/08/20 04:11:11;;;;;;;9.33;8.33;;;;;;;16.32;77.91;101251.16;5974907;29;20314;-55
2021/08/20 04:14:58;;;;;;;8.97;7.67;;;;;;;15.71;79.78;101252.63;5967627;29;20240;-52
2021/08/20 04:18:20;;;;;;;9.03;7.43;;;;;;;15.78;80.62;101253.38;5984178;29;20239;-51
2021/08/20 04:21:42;;;;;;;9.77;7.60;;;;;;;15.56;80.73;101259.09;5972866;29;20626;-52
2021/08/20 04:25:05;;;;;;;11.90;8.90;;;;;;;15.64;80.61;101266.78;5978657;29;20610;-52
2021/08/20 04:29:02;;;;;;;8.93;8.07;;;;;;;15.51;81.91;101267.09;5987137;29;20243;-50
2021/08/20 04:32:36;;;;;;;8.40;7.57;;;;;;;16.09;79.25;101270.13;5994787;29;20516;-53
2021/08/20 04:36:15;;;;;;;9.03;6.37;;;;;;;16.40;77.31;101279.00;5975379;29;20239;-50
2021/08/20 04:39:55;;;;;;;9.47;6.97;;;;;;;15.84;78.68;101279.47;5980460;29;20517;-53
2021/08/20 04:43:50;;;;;;;6.00;5.27;;;;;;;15.92;78.38;101282.81;5967455;29;20243;-52
2021/08/20 04:47:31;;;;;;;8.87;7.10;;;;;;;16.05;77.51;101279.00;5974078;29;20243;-54
2021/08/20 04:51:04;;;;;;;8.73;7.73;;;;;;;15.88;78.47;101279.41;5980829;29;20235;-49
2021/08/20 04:54:49;;;;;;;7.67;6.87;;;;;;;16.10;77.92;101281.50;5977288;29;20240;-53
2021/08/20 04:58:14;;;;;;;7.13;6.43;;;;;;;16.47;76.83;101281.41;5998950;29;20570;-52
2021/08/20 05:01:35;;;;;;;8.80;7.70;;;;;;;16.48;76.34;101287.56;5977526;29;20232;-51
2021/08/20 05:04:56;;;;;;;8.30;7.50;;;;;;;16.18;77.29;101290.03;5990624;29;20248;-52
2021/08/20 05:08:17;;;;;;;9.77;8.53;;;;;;;16.04;77.92;101285.13;5976584;29;20231;-51
2021/08/20 05:11:40;;;;;;;10.83;8.73;;;;;;;16.03;78.50;101298.31;5976042;29;20236;-55
2021/08/20 05:15:01;;;;;;;11.50;9.83;;;;;;;15.81;79.72;101296.19;5984106;29;20244;-54
2021/08/20 05:18:22;;;;;;;11.30;8.93;;;;;;;15.61;79.89;101294.00;5986665;29;20228;-52
2021/08/20 05:21:43;;;;;;;12.10;9.67;;;;;;;15.91;78.85;101297.69;5972480;29;20240;-55
2021/08/20 05:25:05;;;;;;;11.73;10.53;;;;;;;16.37;77.40;101295.72;5985222;29;20243;-54
2021/08/20 05:28:27;;;;;;;12.20;9.50;;;;;;;16.74;76.14;101300.84;5982594;29;20244;-54
2021/08/20 05:31:48;;;;;;;11.30;9.90;;;;;;;16.42;76.70;101309.59;5971137;29;20771;-55
2021/08/20 05:35:12;;;;;;;10.67;8.30;;;;;;;16.38;77.28;101302.72;5972892;29;20327;-54
2021/08/20 05:38:33;;;;;;;10.83;9.73;;;;;;;16.42;76.78;101298.22;5967635;29;20455;-55
2021/08/20 05:41:54;;;;;;;9.30;8.40;;;;;;;16.31;77.44;101307.22;5972556;29;20244;-51
2021/08/20 05:45:17;;;;;;;8.83;7.70;;;;;;;16.33;76.70;101310.69;5983288;29;20251;-50
2021/08/20 05:48:38;;;;;;;9.60;6.20;;;;;;;16.32;76.34;101300.22;5979448;29;20782;-51
2021/08/20 05:51:58;;;;;;;7.57;5.10;;;;;;;16.22;76.29;101302.19;5964993;29;20259;-52
2021/08/20 05:55:19;;;;;;;7.97;5.10;;;;;;;16.29;75.48;101305.56;5969275;29;20232;-48
2021/08/20 05:58:40;;;;;;;5.73;5.20;;;;;;;16.40;75.93;101314.03;5974804;29;20244;-49
2021/08/20 06:02:02;;;;;;;8.67;6.10;;;;;;;16.23;75.94;101311.81;5973027;29;21142;-54
2021/08/20 06:05:24;;;;;;;6.80;5.90;;;;;;;16.30;75.74;101316.03;5975460;29;20240;-51
2021/08/20 06:08:45;;;;;;;7.53;5.40;;;;;;;16.40;75.87;101321.03;5967683;29;20252;-51
2021/08/20 06:12:06;;;;;;;5.20;4.33;;;;;;;16.50;75.51;101317.28;5964756;29;20240;-53
2021/08/20 06:15:27;;;;;;;6.00;4.80;;;;;;;16.79;74.76;101318.28;5964617;29;20233;-54
2021/08/20 06:18:50;;;;;;;6.40;4.70;;;;;;;16.54;74.85;101326.81;5974945;29;20240;-53
2021/08/20 06:22:11;;;;;;;5.87;4.63;;;;;;;16.74;74.66;101329.78;5980950;29;20236;-50
2021/08/20 06:25:32;;;;;;;6.63;5.27;;;;;;;16.65;75.14;101319.53;5966367;29;20241;-51
2021/08/20 06:28:53;;;;;;;5.80;5.20;;;;;;;16.21;77.54;101316.25;5971334;29;20604;-52
2021/08/20 06:32:16;;;;;;;12.03;5.67;;;;;;;16.42;77.06;101319.22;5981409;29;20525;-56
2021/08/20 06:35:38;;;;;;;11.23;8.77;;;;;;;16.16;78.07;101315.50;5955989;29;20236;-52
2021/08/20 06:38:59;;;;;;;10.03;9.03;;;;;;;16.47;76.93;101320.00;5965851;29;20244;-55
2021/08/20 06:42:21;;;;;;;8.93;6.43;;;;;;;16.09;77.42;101320.06;5982219;29;20235;-52
2021/08/20 06:45:42;;;;;;;7.27;5.93;;;;;;;15.99;78.74;101325.53;5961293;29;20324;-50
2021/08/20 06:49:03;;;;;;;5.77;5.17;;;;;;;16.27;77.45;101331.88;5974773;29;20614;-50
2021/08/20 06:52:26;;;;;;;6.37;5.00;;;;;;;16.29;78.04;101335.31;5974090;29;20241;-52
2021/08/20 06:55:47;;;;;;;5.50;4.07;;;;;;;16.53;76.87;101338.22;5972332;29;20243;-52
2021/08/20 06:59:08;;;;;;;3.80;3.33;;;;;;;16.72;75.34;101331.59;5970679;29;20240;-51
2021/08/20 07:02:29;;;;;;;3.20;3.00;;;;;;;16.61;76.16;101346.78;5971142;29;20244;-52
2021/08/20 07:05:49;;;;;;;3.70;3.40;;;;;;;16.74;75.82;101349.97;5980443;29;20236;-54
2021/08/20 07:09:12;;;;;;;5.07;4.27;;;;;;;15.94;79.02;101360.66;5971162;29;20252;-51
2021/08/20 07:12:32;;;;;;;6.07;4.00;;;;;;;16.21;78.93;101368.81;5969057;29;20585;-50
2021/08/20 07:15:54;;;;;;;4.23;3.63;;;;;;;15.92;79.53;101369.50;5981033;29;20228;-54
2021/08/20 07:19:15;;;;;;;4.57;3.43;;;;;;;16.02;79.24;101363.13;5970953;29;20239;-52
2021/08/20 07:22:36;;;;;;;3.77;2.93;;;;;;;16.05;78.65;101356.91;5965300;29;20626;-51
2021/08/20 07:25:59;;;;;;;3.63;3.33;;;;;;;15.63;80.84;101359.59;5970935;29;20236;-54
2021/08/20 07:29:20;;;;;;;3.40;3.10;;;;;;;16.31;79.11;101362.44;5969373;29;20239;-55
2021/08/20 07:32:41;;;;;;;3.33;3.03;;;;;;;16.61;77.86;101361.69;5973363;29;20247;-51
2021/08/20 07:36:02;;;;;;;5.20;4.17;;;;;;;16.05;79.78;101370.94;5975287;29;20327;-49
2021/08/20 07:39:26;;;;;;;3.33;2.93;;;;;;;16.53;78.50;101360.13;5980697;29;20251;-49
2021/08/20 07:42:48;;;;;;;4.27;3.33;;;;;;;16.05;79.48;101362.16;5976256;29;20231;-51
2021/08/20 07:46:08;;;;;;;4.27;3.87;;;;;;;16.21;80.50;101368.81;5964864;29;20730;-54
2021/08/20 07:49:30;;;;;;;4.33;3.83;;;;;;;16.48;79.46;101362.03;5981126;29;20236;-50
2021/08/20 07:52:51;;;;;;;4.20;3.90;;;;;;;16.13;80.12;101376.88;5970170;29;20244;-55
2021/08/20 07:56:12;;;;;;;5.93;4.07;;;;;;;15.99;80.80;101380.72;5966666;29;20232;-53
2021/08/20 07:59:34;;;;;;;5.13;4.30;;;;;;;16.00;81.16;101385.09;5968110;29;20629;-55
2021/08/20 08:02:56;;;;;;;4.70;4.30;;;;;;;16.16;80.94;101386.44;5971615;29;20323;-51
2021/08/20 08:06:16;;;;;;;5.07;4.67;;;;;;;16.33;81.05;101378.16;5976753;29;20251;-51
2021/08/20 08:09:37;;;;;;;4.37;3.97;;;;;;;16.65;78.58;101372.13;5967502;29;20241;-51
2021/08/20 08:12:58;;;;;;;4.40;4.00;;;;;;;16.58;78.25;101373.16;5970842;29;20334;-50
2021/08/20 08:16:20;;;;;;;5.00;4.37;;;;;;;16.90;77.69;101382.00;5977980;29;20319;-49
2021/08/20 08:19:41;;;;;;;4.40;4.00;;;;;;;16.99;77.61;101387.03;5973519;29;20255;-55
2021/08/20 08:23:02;;;;;;;10.83;4.33;;;;;;;17.15;76.48;101389.25;5981406;29;20232;-56
2021/08/20 08:26:24;;;;;;;4.63;4.22;;;;;;;16.92;77.54;101394.25;5972950;29;20240;-55
2021/08/20 08:29:45;;;;;;;4.13;3.80;;;;;;;16.66;78.32;101386.97;5977507;29;20259;-56
2021/08/20 08:33:09;;;;;;;8.07;5.23;;;;;;;16.62;78.39;101380.06;5980168;29;20228;-54
2021/08/20 08:36:34;;;;;;;5.33;4.67;;;;;;;17.30;76.63;101386.22;5972052;29;20344;-50
2021/08/20 08:39:56;;;;;;;5.85;5.25;;;;;;;17.29;75.50;101389.72;5972306;29;20618;-55
2021/08/20 08:43:17;;;;;;;7.13;6.50;;;;;;;17.17;76.50;101392.72;5980090;29;20228;-52
2021/08/20 08:46:38;;;;;;;6.20;5.70;;;;;;;16.32;80.25;101393.09;5970609;29;21088;-55
2021/08/20 08:50:04;;;;;;;6.70;5.40;;;;;;;17.20;76.62;101396.13;5970452;29;20247;-54
2021/08/20 08:53:24;;;;;;;8.10;6.53;;;;;;;17.06;77.78;101391.25;5965438;29;20328;-54
2021/08/20 08:56:46;;;;;;;7.77;6.17;;;;;;;17.31;77.03;101387.91;5970819;29;20338;-54
2021/08/20 09:00:09;;;;;;;7.80;7.00;;;;;;;17.46;76.60;101392.75;5980640;29;20236;-53
2021/08/20 09:03:30;;;;;;;8.23;7.50;;;;;;;17.27;76.88;101402.06;5970555;29;20240;-55
2021/08/20 09:06:54;;;;;;;8.80;7.43;;;;;;;17.16;77.11;101409.38;5969546;29;20252;-53
2021/08/20 09:10:18;;;;;;;8.25;7.45;;;;;;;17.35;76.22;101408.00;5966207;29;20683;-52
2021/08/20 09:13:39;;;;;;;8.90;7.40;;;;;;;16.68;78.57;101414.09;5977436;29;20693;-54
2021/08/20 09:17:00;;;;;;;9.80;8.87;;;;;;;16.91;78.27;101413.56;5978841;29;20236;-53
2021/08/20 09:20:24;;;;;;;9.63;8.73;;;;;;;17.18;77.28;101411.09;5975708;29;20251;-53
2021/08/20 09:23:47;;;;;;;8.13;7.33;;;;;;;18.05;73.89;101413.00;5975943;29;20320;-53
2021/08/20 09:27:35;;;;;;;10.50;9.43;;;;;;;17.92;74.10;101416.06;5964514;29;20627;-55
2021/08/20 09:31:03;;;;;;;10.57;9.52;;;;;;;18.71;72.44;101396.84;5980838;29;20239;-51
2021/08/20 09:34:24;;;;;;;10.27;8.55;;;;;;;19.12;70.95;101399.00;5978598;29;20239;-48
2021/08/20 09:37:46;;;;;;;13.88;12.57;;;;;;;18.48;72.11;101398.44;5978876;29;20248;-55
2021/08/20 09:41:11;;;;;;;12.93;11.20;;;;;;;18.93;71.20;101391.69;5979015;29;20232;-54
2021/08/20 09:44:32;;;;;;;10.95;9.85;;;;;;;19.11;69.83;101392.81;5970303;29;20228;-56
2021/08/20 09:47:55;;;;;;;10.38;9.27;;;;;;;19.89;67.30;101391.75;5969984;29;20243;-54
2021/08/20 09:51:36;;;;;;;12.90;11.32;;;;;;;19.57;66.64;101388.50;5977447;29;20240;-53
2021/08/20 09:54:58;;;;;;;11.82;10.85;;;;;;;19.33;67.54;101387.66;5967816;29;20545;-51
2021/08/20 09:58:20;;;;;;;9.82;8.98;;;;;;;18.94;69.27;101395.19;5974063;29;20322;-53
2021/08/20 10:01:42;;;;;;;10.93;9.90;;;;;;;18.79;69.96;101383.38;5982112;29;20231;-51
2021/08/20 10:05:05;;;;;;;14.03;12.47;;;;;;;18.24;72.69;101400.13;5963451;29;20240;-53
2021/08/20 10:08:26;;;;;;;15.50;12.77;;;;;;;18.10;74.09;101404.94;5971511;29;20251;-54
2021/08/20 10:11:50;;;;;;;17.15;12.95;;;;;;;17.63;77.68;101401.94;5970057;29;20615;-56
2021/08/20 10:15:13;;;;;;;16.97;15.07;;;;;;;17.75;78.24;101406.84;5965610;29;20758;-50
2021/08/20 10:18:34;;;;;;;16.10;14.60;;;;;;;17.70;79.03;101392.97;5978509;29;20235;-55
2021/08/20 10:21:57;;;;;;;18.03;16.23;;;;;;;17.67;80.16;101393.03;5966072;29;20235;-54
2021/08/20 10:25:18;;;;;;;17.67;15.87;;;;;;;18.03;78.36;101390.22;5973221;29;20375;-51
2021/08/20 10:28:40;;;;;;;16.70;14.93;;;;;;;17.85;79.77;101400.41;5969185;29;20240;-50
2021/08/20 10:32:07;;;;;;;14.40;12.93;;;;;;;17.86;77.97;101399.53;5976450;29;20247;-54
2021/08/20 10:35:49;;;;;;;14.20;12.95;;;;;;;18.85;75.59;101391.13;5962432;29;20232;-55
2021/08/20 10:39:26;;;;;;;13.70;12.52;;;;;;;19.22;72.64;101398.59;5966342;29;20655;-51
2021/08/20 10:42:48;;;;;;;13.75;12.50;;;;;;;19.23;72.54;101407.38;5981752;29;20655;-54
2021/08/20 10:46:09;;;;;;;14.32;12.88;;;;;;;19.65;69.28;101409.34;5961127;29;20239;-52
2021/08/20 10:49:44;;;;;;;12.77;11.68;;;;;;;20.82;65.51;101404.72;5981944;29;20547;-49
2021/08/20 10:53:21;;;;;;;13.80;12.43;;;;;;;20.30;66.96;101410.41;5976450;29;20315;-50
2021/08/20 10:56:42;;;;;;;14.63;13.27;;;;;;;19.81;68.48;101405.25;5960495;29;20319;-55
2021/08/20 11:00:04;;;;;;;14.27;12.88;;;;;;;19.64;69.45;101405.00;5982136;29;20232;-53
2021/08/20 11:03:43;;;;;;;14.18;12.90;;;;;;;19.62;69.08;101405.06;5972097;29;20240;-50
2021/08/20 11:07:05;;;;;;;13.57;12.23;;;;;;;19.66;70.07;101409.31;5939689;29;22033;-55
2021/08/20 11:10:33;;;;;;;12.98;11.93;;;;;;;19.90;69.42;101406.66;5962329;29;20247;-52
2021/08/20 11:14:28;;;;;;;14.52;13.23;;;;;;;21.23;65.38;101394.16;5967083;29;20806;-54
2021/08/20 11:17:50;;;;;;;13.27;12.18;;;;;;;21.46;62.59;101397.56;5967086;29;20762;-54
2021/08/20 11:21:26;;;;;;;10.75;9.75;;;;;;;21.91;61.65;101391.09;5974831;29;20414;-50
2021/08/20 11:25:24;;;;;;;8.70;7.90;;;;;;;21.65;59.01;101400.25;5964373;29;20236;-54
2021/08/20 11:28:48;;;;;;;8.30;7.65;;;;;;;21.63;59.77;101401.19;5960946;29;20613;-54
2021/08/20 11:32:09;;;;;;;8.68;7.95;;;;;;;21.72;60.45;101396.38;5969204;29;20593;-54
2021/08/20 11:35:30;;;;;;;10.20;9.05;;;;;;;21.80;58.90;101402.19;5969869;29;20247;-56
2021/08/20 11:38:53;;;;;;;8.32;7.63;;;;;;;22.71;56.12;101393.34;5965626;29;20372;-52
2021/08/20 11:42:15;;;;;;;7.57;6.88;;;;;;;22.74;55.21;101397.63;5964406;29;20235;-54
2021/08/20 11:45:39;;;;;;;10.32;7.82;;;;;;;20.58;62.59;101402.16;5965515;29;20248;-55
2021/08/20 11:49:00;;;;;;;8.27;7.47;;;;;;;21.02;61.38;101395.94;5967266;29;20231;-55
2021/08/20 11:52:21;;;;;;;12.05;10.50;;;;;;;20.84;61.06;101397.63;5966814;29;20326;-53
2021/08/20 11:55:42;;;;;;;10.52;9.48;;;;;;;21.03;60.94;101414.44;5968985;29;20228;-50
2021/08/20 11:59:11;;;;;;;11.43;8.30;;;;;;;20.65;62.33;101430.13;5968676;29;20232;-54
2021/08/20 12:02:34;;;;;;;8.43;7.63;;;;;;;19.87;66.39;101435.84;5965735;29;20258;-48
2021/08/20 12:06:10;;;;;;;7.50;6.80;;;;;;;19.53;67.02;101430.94;5966984;29;21064;-54
2021/08/20 12:09:32;;;;;;;7.60;6.90;;;;;;;20.48;64.55;101429.09;5961861;29;20240;-53
2021/08/20 12:12:53;;;;;;;8.23;7.45;;;;;;;21.80;60.27;101434.84;5946359;29;20267;-56
2021/08/20 12:16:46;;;;;;;6.88;6.32;;;;;;;22.48;56.85;101436.94;5956385;29;20331;-56
2021/08/20 12:20:26;;;;;;;7.65;6.50;;;;;;;22.63;56.19;101432.69;5963992;29;20813;-55
2021/08/20 12:23:58;;;;;;;6.70;6.10;;;;;;;23.37;54.35;101429.78;5963057;29;20334;-54
2021/08/20 12:27:21;;;;;;;5.93;5.38;;;;;;;23.49;54.54;101430.06;5969088;29;20878;-55
2021/08/20 12:30:44;;;;;;;4.60;4.20;;;;;;;23.48;54.02;101439.00;5970647;29;20235;-53
2021/08/20 12:34:06;;;;;;;4.97;4.47;;;;;;;23.00;54.12;101438.78;5957254;29;20765;-54
2021/08/20 12:37:29;;;;;;;3.83;3.53;;;;;;;22.89;53.80;101431.34;5962148;29;20232;-56
2021/08/20 12:40:51;;;;;;;4.68;4.15;;;;;;;22.40;55.44;101447.94;5957917;29;20240;-54
2021/08/20 12:44:12;;;;;;;6.43;4.68;;;;;;;21.66;56.85;101445.22;5957388;29;20603;-56
2021/08/20 12:47:33;;;;;;;4.18;3.78;;;;;;;21.63;57.87;101446.25;5969502;29;20248;-56
2021/08/20 12:50:59;;;;;;;7.88;7.18;;;;;;;21.42;58.73;101442.72;5962533;29;20544;-56
2021/08/20 12:54:30;;;;;;;5.30;4.63;;;;;;;21.83;58.16;101447.97;5966894;29;20231;-55
2021/08/20 12:57:50;;;;;;;4.13;3.83;;;;;;;21.17;59.12;101444.72;5972138;29;20231;-56
2021/08/20 13:01:11;;;;;;;3.53;3.22;;;;;;;21.65;58.63;101447.94;5979952;29;20399;-55
2021/08/20 13:04:32;;;;;;;4.55;4.15;;;;;;;21.31;59.49;101450.28;5971774;29;20775;-56
2021/08/20 13:07:53;;;;;;;4.53;4.13;;;;;;;21.96;56.74;101450.03;5963884;29;20549;-53
2021/08/20 13:11:16;;;;;;;4.80;4.32;;;;;;;22.79;55.23;101448.72;5955217;29;20579;-53
2021/08/20 13:14:37;;;;;;;4.43;4.03;;;;;;;28.08;42.13;101437.66;5962960;29;20514;-57
2021/08/20 13:17:58;;;;;;;4.15;3.75;;;;;;;26.98;42.53;101442.75;5961409;29;20243;-56
2021/08/20 13:21:20;;;;;;;4.25;3.28;;;;;;;24.27;49.10;101447.06;5961899;29;20244;-57
2021/08/20 13:24:41;;;;;;;4.38;4.03;;;;;;;23.59;51.89;101447.22;5953848;29;20247;-54
2021/08/20 13:28:05;;;;;;;5.75;3.47;;;;;;;22.86;54.12;101466.06;5955313;29;20244;-55
2021/08/20 13:31:26;;;;;;;4.20;3.88;;;;;;;22.07;56.32;101461.00;5970650;29;20322;-57
2021/08/20 13:34:47;;;;;;;4.32;3.92;;;;;;;21.61;58.40;101469.28;5969850;29;20271;-56
2021/08/20 13:38:09;;;;;;;4.80;4.40;;;;;;;21.26;59.71;101468.16;5962834;29;20245;-57
2021/08/20 13:41:33;;;;;;;4.38;4.07;;;;;;;20.91;61.71;101473.19;5959726;29;20768;-56
2021/08/20 13:44:55;;;;;;;7.80;4.18;;;;;;;20.84;61.96;101472.59;5965972;29;20498;-56
2021/08/20 13:48:17;;;;;;;5.50;4.88;;;;;;;20.52;62.97;101476.50;5966743;29;20235;-55
2021/08/20 13:51:38;;;;;;;4.25;3.85;;;;;;;20.93;62.19;101471.31;5965671;29;20319;-57
2021/08/20 13:54:59;;;;;;;4.88;4.13;;;;;;;20.73;62.64;101480.09;5964143;29;20281;-56
2021/08/20 13:58:20;;;;;;;3.88;3.42;;;;;;;20.78;62.72;101477.25;5966252;29;20635;-58
2021/08/20 14:01:42;;;;;;;4.68;4.18;;;;;;;20.73;62.79;101477.47;5973189;29;20634;-55
2021/08/20 14:05:04;;;;;;;4.00;3.33;;;;;;;20.73;62.46;101474.81;5960879;29;20244;-56
2021/08/20 14:08:25;;;;;;;4.43;3.60;;;;;;;20.87;62.57;101479.53;5959841;29;20240;-55
2021/08/20 14:11:46;;;;;;;5.85;3.67;;;;;;;20.77;62.63;101480.84;5967129;29;20325;-56
2021/08/20 14:15:08;;;;;;;3.58;3.20;;;;;;;21.01;61.45;101477.19;5962549;29;20236;-54
2021/08/20 14:18:30;;;;;;;5.53;3.72;;;;;;;20.68;62.19;101486.50;5972865;29;20483;-57
2021/08/20 14:21:51;;;;;;;5.63;3.00;;;;;;;20.95;61.80;101482.72;5964442;29;20805;-56
2021/08/20 14:25:12;;;;;;;3.60;3.05;;;;;;;20.97;61.30;101480.00;5966282;29;20240;-55
2021/08/20 14:28:32;;;;;;;4.72;3.63;;;;;;;20.95;61.44;101485.34;5963102;29;20620;-58
2021/08/20 14:31:53;;;;;;;3.40;3.10;;;;;;;20.85;61.29;101490.16;5963472;29;20622;-53
2021/08/20 14:35:16;;;;;;;4.35;2.85;;;;;;;21.25;60.49;101485.00;5959879;29;20241;-56
2021/08/20 14:38:37;;;;;;;3.35;2.85;;;;;;;21.47;59.13;101492.03;5965134;29;20244;-52
2021/08/20 14:42:00;;;;;;;2.95;2.75;;;;;;;21.92;57.53;101499.69;5970083;29;20243;-58
2021/08/20 14:45:21;;;;;;;4.13;3.00;;;;;;;21.72;56.50;101497.09;5962298;29;20333;-57
2021/08/20 14:48:42;;;;;;;3.47;2.60;;;;;;;21.91;56.71;101503.28;5968213;29;20621;-54
2021/08/20 14:52:06;;;;;;;3.80;2.67;;;;;;;21.70;56.78;101498.97;5961983;29;20673;-58
2021/08/20 14:55:27;;;;;;;2.53;2.33;;;;;;;22.25;54.95;101498.25;5967913;29;20251;-58
2021/08/20 14:58:48;;;;;;;3.40;1.90;;;;;;;22.85;52.82;101496.19;5959170;29;20259;-56
2021/08/20 15:02:12;;;;;;;1.40;1.30;;;;;;;23.03;52.33;101506.84;5964305;29;20248;-57
2021/08/20 15:05:33;;;;;;;3.25;1.92;;;;;;;23.13;51.80;101502.81;5958628;29;20371;-57
2021/08/20 15:08:55;;;;;;;1.63;1.52;;;;;;;22.93;51.80;101509.09;5952870;29;20260;-57
2021/08/20 15:12:16;;;;;;;2.08;1.90;;;;;;;22.30;52.38;101510.34;5962903;29;20488;-58
2021/08/20 15:15:39;;;;;;;3.53;3.28;;;;;;;23.13;51.26;101508.13;5961167;29;20582;-57
2021/08/20 15:19:02;;;;;;;5.38;3.75;;;;;;;24.11;50.32;101499.41;5965724;29;20842;-56
2021/08/20 15:22:23;;;;;;;2.80;2.55;;;;;;;23.41;51.13;101514.66;5967006;29;20243;-56
2021/08/20 15:25:45;;;;;;;2.17;1.98;;;;;;;23.64;49.60;101509.00;5965554;29;20263;-57
2021/08/20 15:29:06;;;;;;;2.92;2.05;;;;;;;22.71;51.31;101510.16;5958912;29;20247;-56
2021/08/20 15:32:27;;;;;;;2.08;1.75;;;;;;;22.44;52.17;101517.66;5963368;29;20491;-53
2021/08/20 15:35:47;;;;;;;2.80;2.60;;;;;;;22.34;52.42;101508.41;5964628;29;20319;-54
2021/08/20 15:39:08;;;;;;;3.22;2.30;;;;;;;22.41;53.08;101516.00;5963632;29;20266;-57
2021/08/20 15:42:31;;;;;;;2.90;2.00;;;;;;;22.65;51.41;101515.75;5963601;29;20931;-53